createdAt,value
2019-05-23T00:02:32.582Z,6.70
2019-05-23T00:05:09.540Z,6.70
2019-05-23T00:07:38.970Z,6.70
2019-05-23T00:10:12.814Z,6.60
2019-05-23T00:13:01.105Z,6.60
2019-05-23T00:15:36.019Z,6.50
2019-05-23T00:18:06.179Z,6.40
2019-05-23T00:20:35.633Z,6.40
2019-05-23T00:23:07.301Z,6.40
2019-05-23T00:25:36.938Z,6.40
2019-05-23T00:28:07.017Z,6.40
2019-05-23T00:30:47.498Z,6.40
2019-05-23T00:33:19.562Z,6.40
2019-05-23T00:35:48.685Z,6.30
2019-05-23T00:38:17.766Z,6.30
2019-05-23T00:40:48.406Z,6.20
2019-05-23T00:43:18.176Z,6.20
2019-05-23T00:45:47.051Z,6.10
2019-05-23T00:48:17.332Z,6.00
2019-05-23T00:50:46.638Z,6.10
2019-05-23T00:53:17.254Z,6.00
2019-05-23T00:55:47.024Z,6.00
2019-05-23T00:58:16.782Z,6.00
2019-05-23T01:00:46.138Z,6.00
2019-05-23T01:03:16.554Z,5.90
2019-05-23T01:05:45.433Z,5.90
2019-05-23T01:08:15.297Z,5.90
2019-05-23T01:10:44.709Z,5.80
2019-05-23T01:13:15.379Z,5.80
2019-05-23T01:15:45.199Z,5.80
2019-05-23T01:18:15.409Z,5.80
2019-05-23T01:20:55.555Z,5.80
2019-05-23T01:23:25.038Z,5.90
2019-05-23T01:25:55.809Z,6.00
2019-05-23T01:28:25.162Z,6.00
2019-05-23T01:30:58.218Z,5.90
2019-05-23T01:33:27.672Z,5.80
2019-05-23T01:35:57.662Z,5.70
2019-05-23T01:38:27.161Z,5.70
2019-05-23T01:40:56.062Z,5.60
2019-05-23T01:43:25.515Z,5.60
2019-05-23T01:45:54.375Z,5.60
2019-05-23T01:48:24.249Z,5.60
2019-05-23T01:50:54.500Z,5.60
2019-05-23T01:53:23.659Z,5.50
2019-05-23T01:55:53.115Z,5.50
2019-05-23T01:58:22.845Z,5.40
2019-05-23T02:00:51.670Z,5.30
2019-05-23T02:03:21.002Z,5.30
2019-05-23T02:05:50.706Z,5.30
2019-05-23T02:08:20.137Z,5.30
2019-05-23T02:10:49.404Z,5.30
2019-05-23T02:13:18.440Z,5.20
2019-05-23T02:15:47.552Z,5.10
2019-05-23T02:18:17.735Z,5.10
2019-05-23T02:20:48.570Z,5.10
2019-05-23T02:23:19.737Z,5.00
2019-05-23T02:25:49.868Z,4.90
2019-05-23T02:28:20.382Z,4.90
2019-05-23T02:30:50.710Z,4.80
2019-05-23T02:33:19.974Z,4.80
2019-05-23T02:35:49.272Z,4.80
2019-05-23T02:38:38.614Z,4.80
2019-05-23T02:41:25.830Z,4.80
2019-05-23T02:43:59.894Z,4.80
2019-05-23T02:46:34.910Z,4.80
2019-05-23T02:49:07.186Z,4.80
2019-05-23T02:51:39.237Z,4.70
2019-05-23T02:54:11.936Z,4.70
2019-05-23T02:56:41.383Z,4.60
2019-05-23T02:59:19.099Z,4.60
2019-05-23T03:02:20.763Z,4.60
2019-05-23T03:04:52.149Z,4.60
2019-05-23T03:07:24.810Z,4.50
2019-05-23T03:09:54.972Z,4.50
2019-05-23T03:12:25.886Z,4.50
2019-05-23T03:14:55.239Z,4.50
2019-05-23T03:17:26.974Z,4.50
2019-05-23T03:20:01.292Z,4.50
2019-05-23T03:22:36.475Z,4.50
2019-05-23T03:25:09.326Z,4.60
2019-05-23T03:27:43.615Z,4.60
2019-05-23T03:30:17.971Z,4.70
2019-05-23T03:32:52.587Z,4.80
2019-05-23T03:35:47.030Z,4.90
2019-05-23T03:38:16.999Z,5.00
2019-05-23T03:40:46.365Z,5.00
2019-05-23T03:43:15.868Z,5.00
2019-05-23T03:45:53.525Z,5.10
2019-05-23T03:48:24.139Z,5.10
2019-05-23T03:50:55.301Z,5.20
2019-05-23T03:53:27.539Z,5.30
2019-05-23T03:55:59.430Z,5.30
2019-05-23T03:58:29.691Z,5.40
2019-05-23T04:01:00.107Z,5.50
2019-05-23T04:03:30.091Z,5.60
2019-05-23T04:05:59.536Z,5.60
2019-05-23T04:08:28.960Z,5.60
2019-05-23T04:10:58.087Z,5.70
2019-05-23T04:13:27.699Z,5.80
2019-05-23T04:15:56.587Z,5.90
2019-05-23T04:18:26.087Z,6.00
2019-05-23T04:20:55.576Z,6.20
2019-05-23T04:23:24.646Z,6.20
2019-05-23T04:25:54.178Z,6.40
2019-05-23T04:28:23.386Z,6.40
2019-05-23T04:31:13.096Z,6.50
2019-05-23T04:33:42.520Z,6.60
2019-05-23T04:36:11.664Z,6.70
2019-05-23T04:38:40.661Z,6.80
2019-05-23T04:41:09.790Z,6.80
2019-05-23T04:43:38.803Z,6.90
2019-05-23T04:46:07.723Z,6.80
2019-05-23T04:48:37.887Z,6.80
2019-05-23T04:51:06.871Z,6.80
2019-05-23T04:53:36.474Z,6.80
2019-05-23T04:56:06.236Z,6.80
2019-05-23T04:58:36.208Z,6.90
2019-05-23T05:01:06.293Z,7.00
2019-05-23T05:03:35.308Z,7.00
2019-05-23T05:06:05.144Z,7.00
2019-05-23T05:08:34.662Z,7.10
2019-05-23T05:11:04.198Z,7.10
2019-05-23T05:13:34.489Z,7.10
2019-05-23T05:16:03.445Z,7.10
2019-05-23T05:18:32.532Z,7.10
2019-05-23T05:21:01.645Z,7.20
2019-05-23T05:23:30.822Z,7.20
2019-05-23T05:25:59.749Z,7.30
2019-05-23T05:28:28.743Z,7.20
2019-05-23T05:30:58.220Z,7.30
2019-05-23T05:33:27.222Z,7.40
2019-05-23T05:35:56.292Z,7.40
2019-05-23T05:38:28.550Z,7.50
2019-05-23T05:40:56.437Z,7.50
2019-05-23T05:43:25.713Z,7.60
2019-05-23T05:45:55.061Z,7.70
2019-05-23T05:48:24.060Z,7.80
2019-05-23T05:50:53.795Z,7.80
2019-05-23T05:53:22.854Z,7.90
2019-05-23T05:55:51.766Z,8.10
2019-05-23T05:58:20.931Z,8.10
2019-05-23T06:00:57.350Z,8.10
2019-05-23T06:03:26.405Z,8.20
2019-05-23T06:06:20.459Z,8.20
2019-05-23T06:08:52.258Z,8.30
2019-05-23T06:11:21.864Z,8.40
2019-05-23T06:13:51.292Z,8.60
2019-05-23T06:16:20.216Z,8.60
2019-05-23T06:18:49.252Z,8.70
2019-05-23T06:21:24.701Z,8.80
2019-05-23T06:23:53.670Z,8.80
2019-05-23T06:26:22.637Z,8.90
2019-05-23T06:28:51.891Z,9.30
2019-05-23T06:31:22.222Z,9.40
2019-05-23T06:33:51.597Z,9.60
2019-05-23T06:36:20.958Z,9.90
2019-05-23T06:38:50.031Z,10.10
2019-05-23T06:41:20.105Z,10.60
2019-05-23T06:43:49.688Z,11.00
2019-05-23T06:46:19.981Z,11.40
2019-05-23T06:48:48.988Z,11.70
2019-05-23T06:51:18.443Z,11.80
2019-05-23T06:53:47.600Z,11.70
2019-05-23T06:56:17.684Z,11.60
2019-05-23T06:58:46.589Z,11.50
2019-05-23T07:01:15.782Z,11.30
2019-05-23T07:03:44.754Z,11.40
2019-05-23T07:06:16.933Z,12.50
2019-05-23T07:08:45.971Z,13.50
2019-05-23T07:11:16.751Z,13.60
2019-05-23T07:13:46.501Z,14.30
2019-05-23T07:16:15.635Z,15.00
2019-05-23T07:18:44.938Z,15.40
2019-05-23T07:21:15.030Z,15.30
2019-05-23T07:23:44.356Z,15.50
2019-05-23T07:26:14.241Z,15.60
2019-05-23T07:28:43.286Z,16.30
2019-05-23T07:31:12.327Z,16.70
2019-05-23T07:33:59.945Z,16.70
2019-05-23T07:36:13.280Z,17.00
2019-05-23T07:38:42.689Z,17.20
2019-05-23T07:41:11.593Z,17.40
2019-05-23T07:43:40.654Z,18.10
2019-05-23T07:46:09.733Z,18.00
2019-05-23T07:48:39.290Z,18.20
2019-05-23T07:51:08.241Z,19.30
2019-05-23T07:53:45.882Z,19.70
2019-05-23T07:56:16.790Z,20.00
2019-05-23T07:58:46.182Z,19.50
2019-05-23T08:01:17.200Z,19.80
2019-05-23T08:03:48.748Z,19.40
2019-05-23T08:06:17.586Z,19.80
2019-05-23T08:08:46.544Z,20.30
2019-05-23T08:11:15.532Z,20.70
2019-05-23T08:13:44.529Z,20.90
2019-05-23T08:16:13.710Z,21.20
2019-05-23T08:18:42.869Z,21.70
2019-05-23T08:21:11.694Z,21.80
2019-05-23T08:23:40.570Z,21.70
2019-05-23T08:26:11.180Z,23.10
2019-05-23T08:28:56.723Z,23.30
2019-05-23T08:31:10.929Z,22.70
2019-05-23T08:33:39.962Z,23.10
2019-05-23T08:36:09.983Z,22.00
2019-05-23T08:38:39.007Z,22.20
2019-05-23T08:41:08.603Z,22.70
2019-05-23T08:43:37.946Z,23.50
2019-05-23T08:46:07.675Z,24.20
2019-05-23T08:48:36.526Z,23.90
2019-05-23T08:51:05.642Z,23.80
2019-05-23T08:53:34.817Z,24.80
2019-05-23T08:56:17.552Z,24.40
2019-05-23T08:58:35.591Z,24.30
2019-05-23T09:01:04.959Z,23.10
2019-05-23T09:03:34.073Z,22.50
2019-05-23T09:06:03.198Z,23.00
2019-05-23T09:08:34.598Z,24.00
2019-05-23T09:11:03.636Z,24.80
2019-05-23T09:13:32.915Z,25.40
2019-05-23T09:16:20.938Z,25.20
2019-05-23T09:18:49.827Z,23.90
2019-05-23T09:21:19.310Z,22.50
2019-05-23T09:23:48.735Z,21.00
2019-05-23T09:26:17.757Z,20.10
2019-05-23T09:28:46.940Z,19.80
2019-05-23T09:31:16.954Z,19.20
2019-05-23T09:33:46.111Z,19.40
2019-05-23T09:36:15.185Z,19.40
2019-05-23T09:38:44.012Z,18.70
2019-05-23T09:41:13.253Z,18.40
2019-05-23T09:43:42.328Z,18.80
2019-05-23T09:46:11.429Z,19.50
2019-05-23T09:48:40.658Z,20.20
2019-05-23T09:51:09.846Z,20.60
2019-05-23T09:53:39.021Z,21.60
2019-05-23T09:56:08.187Z,22.00
2019-05-23T09:58:37.264Z,23.50
2019-05-23T10:01:06.318Z,24.00
2019-05-23T10:03:35.225Z,23.60
2019-05-23T10:06:04.044Z,24.00
2019-05-23T10:08:32.958Z,23.40
2019-05-23T10:11:01.970Z,22.20
2019-05-23T10:13:39.067Z,21.20
2019-05-23T10:16:09.551Z,20.70
2019-05-23T10:18:39.854Z,20.70
2019-05-23T10:21:09.008Z,20.10
2019-05-23T10:23:37.841Z,19.10
2019-05-23T10:26:07.313Z,18.90
2019-05-23T10:28:36.457Z,19.00
2019-05-23T10:31:07.012Z,19.70
2019-05-23T10:33:36.763Z,20.80
2019-05-23T10:36:05.827Z,21.00
2019-05-23T10:38:34.758Z,21.30
2019-05-23T10:41:04.445Z,22.10
2019-05-23T10:43:33.507Z,22.60
2019-05-23T10:46:02.326Z,22.90
2019-05-23T10:48:32.508Z,22.00
2019-05-23T10:51:01.522Z,22.70
2019-05-23T10:53:30.538Z,21.70
2019-05-23T10:55:59.772Z,21.70
2019-05-23T10:58:29.608Z,22.70
2019-05-23T11:00:59.000Z,22.70
2019-05-23T11:03:28.432Z,22.40
2019-05-23T11:05:57.486Z,21.40
2019-05-23T11:08:29.929Z,20.50
2019-05-23T11:10:58.145Z,20.60
2019-05-23T11:13:27.376Z,21.30
2019-05-23T11:15:56.282Z,21.90
2019-05-23T11:18:25.095Z,21.30
2019-05-23T11:20:54.002Z,20.70
2019-05-23T11:23:26.125Z,19.60
2019-05-23T11:25:55.292Z,18.70
2019-05-23T11:28:25.547Z,18.90
2019-05-23T11:30:56.692Z,18.60
2019-05-23T11:33:25.779Z,18.30
2019-05-23T11:35:55.069Z,17.90
2019-05-23T11:38:24.205Z,17.40
2019-05-23T11:40:53.161Z,18.00
2019-05-23T11:43:22.075Z,18.90
2019-05-23T11:45:59.405Z,19.60
2019-05-23T11:48:40.450Z,19.90
2019-05-23T11:51:09.688Z,19.90
2019-05-23T11:53:38.918Z,20.50
2019-05-23T11:56:08.300Z,21.40
2019-05-23T11:58:37.178Z,21.90
2019-05-23T12:01:20.802Z,23.00
2019-05-23T12:03:48.407Z,22.70
2019-05-23T12:06:18.010Z,22.30
2019-05-23T12:08:46.932Z,20.80
2019-05-23T12:11:17.398Z,20.60
2019-05-23T12:13:46.250Z,20.40
2019-05-23T12:16:15.452Z,20.50
2019-05-23T12:18:44.535Z,21.00
2019-05-23T12:21:13.895Z,21.40
2019-05-23T12:23:42.802Z,22.10
2019-05-23T12:26:11.680Z,22.70
2019-05-23T12:28:40.562Z,23.10
2019-05-23T12:31:09.950Z,23.10
2019-05-23T12:33:39.939Z,22.60
2019-05-23T12:36:11.729Z,22.00
2019-05-23T12:38:40.682Z,21.60
2019-05-23T12:41:11.639Z,22.10
2019-05-23T12:43:40.521Z,21.40
2019-05-23T12:46:09.371Z,22.40
2019-05-23T12:48:48.917Z,23.00
2019-05-23T12:51:19.359Z,23.50
2019-05-23T12:53:48.563Z,23.30
2019-05-23T12:56:17.629Z,23.50
2019-05-23T12:58:47.570Z,23.20
2019-05-23T13:01:17.920Z,22.70
2019-05-23T13:03:47.009Z,22.70
2019-05-23T13:06:16.184Z,22.50
2019-05-23T13:08:45.191Z,21.70
2019-05-23T13:11:14.829Z,21.80
2019-05-23T13:13:49.786Z,22.40
2019-05-23T13:16:18.785Z,23.00
2019-05-23T13:18:47.836Z,23.50
2019-05-23T13:21:35.846Z,22.80
2019-05-23T13:24:04.965Z,21.70
2019-05-23T13:26:34.394Z,22.00
2019-05-23T13:29:03.454Z,22.60
2019-05-23T13:31:32.419Z,22.20
2019-05-23T13:34:01.303Z,22.80
2019-05-23T13:36:30.283Z,22.50
2019-05-23T13:38:59.451Z,22.90
2019-05-23T13:41:28.857Z,23.40
2019-05-23T13:43:57.790Z,24.00
2019-05-23T13:46:26.780Z,24.10
2019-05-23T13:48:55.766Z,23.90
2019-05-23T13:51:25.162Z,23.60
2019-05-23T13:53:54.152Z,23.30
2019-05-23T13:56:23.635Z,22.70
2019-05-23T13:58:52.586Z,22.30
2019-05-23T14:01:21.513Z,22.10
2019-05-23T14:03:50.796Z,21.70
2019-05-23T14:06:19.834Z,21.40
2019-05-23T14:08:48.684Z,21.20
2019-05-23T14:11:18.302Z,21.60
2019-05-23T14:13:47.488Z,22.00
2019-05-23T14:16:16.760Z,21.90
2019-05-23T14:18:45.891Z,22.00
2019-05-23T14:21:14.932Z,21.70
2019-05-23T14:23:43.924Z,21.50
2019-05-23T14:26:14.025Z,21.30
2019-05-23T14:28:43.542Z,21.30
2019-05-23T14:31:17.486Z,21.50
2019-05-23T14:33:53.114Z,21.90
2019-05-23T14:36:32.391Z,22.40
2019-05-23T14:39:00.593Z,22.30
2019-05-23T14:41:44.577Z,22.40
2019-05-23T14:44:06.662Z,22.20
2019-05-23T14:46:41.280Z,21.60
2019-05-23T14:49:17.065Z,21.70
2019-05-23T14:51:52.747Z,21.70
2019-05-23T14:54:36.029Z,21.70
2019-05-23T14:57:06.453Z,21.50
2019-05-23T14:59:35.996Z,21.20
2019-05-23T15:02:07.514Z,21.20
2019-05-23T15:04:55.801Z,21.00
2019-05-23T15:07:24.652Z,21.00
2019-05-23T15:09:53.489Z,20.90
2019-05-23T15:12:22.470Z,21.10
2019-05-23T15:14:59.114Z,21.10
2019-05-23T15:17:28.075Z,20.70
2019-05-23T15:19:57.076Z,20.80
2019-05-23T15:22:26.549Z,20.50
2019-05-23T15:24:55.470Z,20.60
2019-05-23T15:27:24.426Z,20.50
2019-05-23T15:29:53.660Z,20.80
2019-05-23T15:32:22.888Z,21.10
2019-05-23T15:34:51.698Z,21.10
2019-05-23T15:37:20.853Z,20.90
2019-05-23T15:39:49.696Z,20.30
2019-05-23T15:42:18.803Z,20.10
2019-05-23T15:44:47.620Z,20.10
2019-05-23T15:47:18.241Z,20.10
2019-05-23T15:49:48.742Z,19.90
2019-05-23T15:52:55.142Z,20.00
2019-05-23T15:55:41.819Z,19.90
2019-05-23T15:58:15.665Z,20.10
2019-05-23T16:00:50.877Z,20.10
2019-05-23T16:03:37.828Z,20.40
2019-05-23T16:06:09.148Z,20.50
2019-05-23T16:08:38.219Z,20.50
2019-05-23T16:11:07.538Z,20.50
2019-05-23T16:13:36.486Z,20.30
2019-05-23T16:16:05.791Z,20.30
2019-05-23T16:18:35.195Z,20.40
2019-05-23T16:21:04.644Z,20.10
2019-05-23T16:23:52.978Z,19.80
2019-05-23T16:26:22.198Z,19.70
2019-05-23T16:28:51.306Z,19.50
2019-05-23T16:31:20.198Z,19.40
2019-05-23T16:33:49.246Z,19.00
2019-05-23T16:36:18.375Z,19.10
2019-05-23T16:38:47.249Z,19.10
2019-05-23T16:41:16.417Z,19.10
2019-05-23T16:43:45.366Z,19.10
2019-05-23T16:46:14.271Z,19.30
2019-05-23T16:48:43.333Z,19.20
2019-05-23T16:51:12.218Z,19.10
2019-05-23T16:53:41.282Z,19.20
2019-05-23T16:56:24.805Z,19.20
2019-05-23T16:59:03.582Z,19.20
2019-05-23T17:02:06.866Z,19.20
2019-05-23T17:05:09.744Z,19.20
2019-05-23T17:07:46.777Z,19.10
2019-05-23T17:10:21.198Z,19.00
2019-05-23T17:13:18.634Z,19.00
2019-05-23T17:16:11.945Z,18.90
2019-05-23T17:18:46.561Z,18.90
2019-05-23T17:21:33.471Z,18.80
2019-05-23T17:24:12.385Z,18.80
2019-05-23T17:26:59.325Z,18.60
2019-05-23T17:29:33.807Z,18.50
2019-05-23T17:32:04.418Z,18.40
2019-05-23T17:34:33.500Z,18.30
2019-05-23T17:37:03.204Z,18.20
2019-05-23T17:39:32.116Z,18.10
2019-05-23T17:42:01.166Z,18.00
2019-05-23T17:44:30.062Z,17.90
2019-05-23T17:46:59.383Z,17.80
2019-05-23T17:49:28.266Z,17.70
2019-05-23T17:51:57.174Z,17.70
2019-05-23T17:54:26.141Z,17.60
2019-05-23T17:56:55.191Z,17.50
2019-05-23T17:59:24.745Z,17.30
2019-05-23T18:01:54.086Z,17.10
2019-05-23T18:04:24.106Z,17.00
2019-05-23T18:06:53.191Z,16.80
2019-05-23T18:09:22.224Z,16.70
2019-05-23T18:11:51.502Z,16.50
2019-05-23T18:14:21.062Z,16.40
2019-05-23T18:16:50.311Z,16.30
2019-05-23T18:19:19.445Z,16.10
2019-05-23T18:21:48.421Z,16.00
2019-05-23T18:24:17.692Z,15.70
2019-05-23T18:26:46.789Z,15.70
2019-05-23T18:29:16.626Z,15.50
2019-05-23T18:31:47.189Z,15.40
2019-05-23T18:34:16.591Z,15.30
2019-05-23T18:36:46.054Z,15.20
2019-05-23T18:39:16.551Z,15.10
2019-05-23T18:41:45.634Z,14.90
2019-05-23T18:44:15.420Z,14.80
2019-05-23T18:46:47.924Z,14.70
2019-05-23T18:49:17.150Z,14.50
2019-05-23T18:51:46.053Z,14.40
2019-05-23T18:54:15.343Z,14.20
2019-05-23T18:56:44.467Z,14.10
2019-05-23T18:59:13.652Z,14.00
2019-05-23T19:01:42.851Z,13.80
2019-05-23T19:04:12.086Z,13.70
2019-05-23T19:06:41.786Z,13.60
2019-05-23T19:09:13.423Z,13.50
2019-05-23T19:11:42.570Z,13.40
2019-05-23T19:14:11.647Z,13.30
2019-05-23T19:16:40.567Z,13.20
2019-05-23T19:19:21.837Z,13.00
2019-05-23T19:21:50.929Z,13.00
2019-05-23T19:24:20.216Z,12.90
2019-05-23T19:26:49.374Z,12.80
2019-05-23T19:29:18.542Z,12.80
2019-05-23T19:31:47.440Z,12.70
2019-05-23T19:34:16.486Z,12.60
2019-05-23T19:36:45.382Z,12.50
2019-05-23T19:39:14.446Z,12.50
2019-05-23T19:41:43.330Z,12.40
2019-05-23T19:44:12.297Z,12.30
2019-05-23T19:46:41.375Z,12.20
2019-05-23T19:49:20.462Z,12.10
2019-05-23T19:51:49.486Z,12.00
2019-05-23T19:54:19.088Z,12.00
2019-05-23T19:56:48.186Z,11.90
2019-05-23T19:59:20.944Z,11.80
2019-05-23T20:02:15.289Z,11.70
2019-05-23T20:04:51.293Z,11.60
2019-05-23T20:07:20.482Z,11.50
2019-05-23T20:09:50.059Z,11.40
2019-05-23T20:12:19.927Z,11.10
2019-05-23T20:14:49.126Z,11.30
2019-05-23T20:17:18.447Z,11.20
2019-05-23T20:19:50.383Z,11.10
2019-05-23T20:22:18.851Z,11.10
2019-05-23T20:24:48.285Z,11.00
2019-05-23T20:27:18.888Z,10.90
2019-05-23T20:29:48.402Z,10.80
2019-05-23T20:32:17.581Z,10.70
2019-05-23T20:34:46.858Z,10.60
2019-05-23T20:37:18.596Z,10.60
2019-05-23T20:39:52.313Z,10.50
2019-05-23T20:42:39.104Z,10.40
2019-05-23T20:45:11.299Z,10.40
2019-05-23T20:47:40.534Z,10.30
2019-05-23T20:50:10.041Z,10.20
2019-05-23T20:52:39.063Z,10.10
2019-05-23T20:55:08.799Z,10.10
2019-05-23T20:57:38.414Z,10.00
2019-05-23T21:00:10.136Z,10.00
2019-05-23T21:02:39.806Z,9.90
2019-05-23T21:05:09.343Z,9.80
2019-05-23T21:07:41.027Z,9.80
2019-05-23T21:10:11.812Z,9.70
2019-05-23T21:12:40.953Z,9.60
2019-05-23T21:15:10.623Z,9.50
2019-05-23T21:17:39.806Z,9.50
2019-05-23T21:20:16.005Z,9.40
2019-05-23T21:22:49.043Z,9.30
2019-05-23T21:25:23.737Z,9.30
2019-05-23T21:28:15.320Z,9.20
2019-05-23T21:30:44.476Z,9.20
2019-05-23T21:33:15.925Z,9.10
2019-05-23T21:35:45.141Z,9.00
2019-05-23T21:38:17.070Z,9.00
2019-05-23T21:40:47.612Z,9.00
2019-05-23T21:43:16.914Z,8.90
2019-05-23T21:45:46.041Z,8.90
2019-05-23T21:48:15.253Z,8.80
2019-05-23T21:50:44.413Z,8.80
2019-05-23T21:53:13.430Z,8.70
2019-05-23T21:55:43.742Z,8.60
2019-05-23T21:58:14.246Z,8.60
2019-05-23T22:01:28.160Z,8.50
2019-05-23T22:04:08.052Z,8.50
2019-05-23T22:06:38.759Z,8.50
2019-05-23T22:09:09.686Z,8.40
2019-05-23T22:11:39.245Z,8.40
2019-05-23T22:14:08.810Z,8.30
2019-05-23T22:16:39.121Z,8.20
2019-05-23T22:19:10.689Z,8.20
2019-05-23T22:21:40.415Z,8.10
2019-05-23T22:24:09.824Z,8.10
2019-05-23T22:26:38.870Z,8.10
2019-05-23T22:29:08.430Z,8.10
2019-05-23T22:31:37.933Z,8.00
2019-05-23T22:34:14.969Z,8.00
2019-05-23T22:36:44.040Z,7.90
2019-05-23T22:39:13.114Z,7.90
2019-05-23T22:41:42.108Z,7.90
2019-05-23T22:44:12.006Z,7.80
2019-05-23T22:46:41.047Z,7.80
2019-05-23T22:49:10.021Z,7.80
2019-05-23T22:51:38.943Z,7.80
2019-05-23T22:54:08.494Z,7.70
2019-05-23T22:56:37.394Z,7.70
2019-05-23T22:59:06.439Z,7.70
2019-05-23T23:01:35.722Z,7.70
2019-05-23T23:04:04.906Z,7.60
2019-05-23T23:06:35.261Z,7.60
2019-05-23T23:09:06.397Z,7.50
2019-05-23T23:11:35.245Z,7.50
2019-05-23T23:14:04.357Z,7.40
2019-05-23T23:16:33.376Z,7.40
2019-05-23T23:19:02.693Z,7.40
2019-05-23T23:21:32.137Z,7.40
2019-05-23T23:24:00.977Z,7.30
2019-05-23T23:26:29.818Z,7.30
2019-05-23T23:29:09.600Z,7.30
2019-05-23T23:31:38.676Z,7.20
2019-05-23T23:34:07.661Z,7.20
2019-05-23T23:36:36.612Z,7.20
2019-05-23T23:39:07.469Z,7.10
2019-05-23T23:41:36.467Z,7.10
2019-05-23T23:44:07.626Z,7.10
2019-05-23T23:46:54.389Z,7.10
2019-05-23T23:49:41.270Z,7.10
2019-05-23T23:52:28.440Z,7.00
2019-05-23T23:55:15.512Z,7.00
2019-05-23T23:57:58.846Z,7.00
